Homer, Minnesota
Current Conditions -  °F | °C
As of 9:34 PM on Sunday 23 Nov 2014 (Local Time) from KONA Reporting Station
Haze Haze  
Wind Chill: 35°   Ceiling: 1000
Heat Index: 41°   Visibility: 4mi
Dew Point: 39°   Wind: 9mph
Humidity: 93%   Direction: 310°NW
Pressure: 29.27"   Gusts: NA
Location:  44.02°N, 91.56°W
Report Text: KONA 240334Z AUTO 31008KT 4SM BR OVC010 05/04 A2927 RMK AO2
Loading
Personal Weather Stations






























Interactive Weather Map New forecast layout! Learn more

10-Day Weather Forecast

Advertisements
Track Severe Weather on mobile